AIB280 VHHH-ZULS
Flight info
| Callsign | AIB280 |
|---|---|
| Flight time | N/A |
| Altitude | 30100 |
| Route | BEKOL A461 YIN/K0895S0950 A461 MOLSO/K0896S0920 G586 SJG/K0895S0980 B330 ELKAL W179 RIRKI W232 WFX V69 KDJ W9 DM |
| Aircraft | B738/M-SDE2E3FGHIRWXY/LB1 |
Departure
| Time | N/A |
|---|---|
| Airport | Hong Kong International Airport (VHHH) |
Arrival
| Time | 2026-05-07 00:11 |
|---|---|
| Airport | Lhasa Gonggar International Airport (ZULS) |
| Time | Latitude | Longitude | Altitude | Speed | Heading |
|---|---|---|---|---|---|
| 2026-05-06 22:24 | 30.50749 | 104.18815 | 34050 ft | 422 kts | 249° |
| 2026-05-06 22:25 | 30.48206 | 104.12619 | 34052 ft | 423 kts | 247° |
| 2026-05-06 22:25 | 30.45639 | 104.06525 | 34054 ft | 423 kts | 247° |
| 2026-05-06 22:26 | 30.43050 | 104.00330 | 34073 ft | 424 kts | 248° |
| 2026-05-06 22:26 | 30.40507 | 103.94214 | 34071 ft | 423 kts | 248° |
| 2026-05-06 22:27 | 30.37952 | 103.88072 | 34075 ft | 423 kts | 248° |
| 2026-05-06 22:27 | 30.35395 | 103.81937 | 34069 ft | 423 kts | 248° |
| 2026-05-06 22:28 | 30.32839 | 103.75811 | 34069 ft | 422 kts | 248° |
| 2026-05-06 22:28 | 30.30579 | 103.69569 | 34067 ft | 418 kts | 256° |
| 2026-05-06 22:29 | 30.29634 | 103.62964 | 34079 ft | 415 kts | 266° |
| 2026-05-06 22:29 | 30.29156 | 103.56324 | 34071 ft | 415 kts | 266° |
| 2026-05-06 22:30 | 30.28647 | 103.49661 | 34065 ft | 416 kts | 265° |
| 2026-05-06 22:30 | 30.28122 | 103.43006 | 34087 ft | 415 kts | 265° |
| 2026-05-06 22:31 | 30.27592 | 103.36350 | 34064 ft | 415 kts | 265° |
| 2026-05-06 22:31 | 30.27060 | 103.29707 | 34093 ft | 414 kts | 265° |
| 2026-05-06 22:32 | 30.26509 | 103.23123 | 34304 ft | 412 kts | 265° |
| 2026-05-06 22:32 | 30.26229 | 103.19835 | 34610 ft | 409 kts | 265° |
| 2026-05-06 22:32 | 30.25950 | 103.16566 | 34890 ft | 406 kts | 265° |
| 2026-05-06 22:33 | 30.25674 | 103.13332 | 35166 ft | 403 kts | 265° |
| 2026-05-06 22:33 | 30.25399 | 103.10101 | 35276 ft | 405 kts | 265° |
| 2026-05-06 22:33 | 30.25122 | 103.06863 | 35448 ft | 403 kts | 265° |
| 2026-05-06 22:33 | 30.24846 | 103.03636 | 35702 ft | 402 kts | 265° |
| 2026-05-06 22:34 | 30.24570 | 103.00417 | 35852 ft | 403 kts | 265° |
| 2026-05-06 22:34 | 30.24292 | 102.97188 | 35968 ft | 403 kts | 265° |
| 2026-05-06 22:34 | 30.24014 | 102.93972 | 36113 ft | 401 kts | 265° |
| 2026-05-06 22:34 | 30.23737 | 102.90763 | 36249 ft | 401 kts | 265° |
| 2026-05-06 22:35 | 30.23218 | 102.84363 | 36525 ft | 400 kts | 265° |
| 2026-05-06 22:35 | 30.22708 | 102.77954 | 36591 ft | 399 kts | 265° |
| 2026-05-06 22:36 | 30.22197 | 102.71632 | 36620 ft | 388 kts | 265° |
| 2026-05-06 22:36 | 30.21689 | 102.65384 | 36636 ft | 393 kts | 265° |
| 2026-05-06 22:37 | 30.21171 | 102.59052 | 36623 ft | 398 kts | 265° |
| 2026-05-06 22:37 | 30.20645 | 102.52700 | 36666 ft | 400 kts | 265° |
| 2026-05-06 22:38 | 30.20111 | 102.46257 | 36693 ft | 404 kts | 265° |
| 2026-05-06 22:38 | 30.19589 | 102.39797 | 36725 ft | 401 kts | 265° |
| 2026-05-06 22:39 | 30.19091 | 102.33396 | 36650 ft | 399 kts | 265° |
| 2026-05-06 22:39 | 30.18593 | 102.27087 | 36667 ft | 390 kts | 265° |
| 2026-05-06 22:40 | 30.18094 | 102.20814 | 36703 ft | 395 kts | 265° |
| 2026-05-06 22:40 | 30.17584 | 102.14432 | 36688 ft | 404 kts | 265° |
| 2026-05-06 22:41 | 30.16806 | 102.04802 | 36683 ft | 402 kts | 265° |
| 2026-05-06 22:42 | 30.16281 | 101.98384 | 36666 ft | 401 kts | 264° |
| 2026-05-06 22:42 | 30.15755 | 101.91969 | 36667 ft | 400 kts | 264° |
| 2026-05-06 22:43 | 30.15229 | 101.85580 | 36633 ft | 400 kts | 264° |
| 2026-05-06 22:43 | 30.14701 | 101.79203 | 36611 ft | 397 kts | 264° |
| 2026-05-06 22:44 | 30.14261 | 101.72890 | 36581 ft | 397 kts | 269° |
| 2026-05-06 22:44 | 30.14734 | 101.66532 | 36616 ft | 398 kts | 274° |
| 2026-05-06 22:45 | 30.15295 | 101.60164 | 36571 ft | 399 kts | 274° |
| 2026-05-06 22:45 | 30.15829 | 101.53773 | 36576 ft | 400 kts | 274° |
| 2026-05-06 22:46 | 30.16367 | 101.47360 | 36557 ft | 401 kts | 274° |
| 2026-05-06 22:46 | 30.16909 | 101.40938 | 36527 ft | 402 kts | 274° |
| 2026-05-06 22:47 | 30.17454 | 101.34476 | 36522 ft | 405 kts | 274° |
| 2026-05-06 22:47 | 30.17995 | 101.27994 | 36510 ft | 405 kts | 274° |
| 2026-05-06 22:48 | 30.18528 | 101.21567 | 36478 ft | 404 kts | 274° |
| 2026-05-06 22:48 | 30.19061 | 101.15108 | 36491 ft | 404 kts | 274° |
| 2026-05-06 22:49 | 30.19590 | 101.08656 | 36489 ft | 402 kts | 274° |
| 2026-05-06 22:49 | 30.20114 | 101.02212 | 36510 ft | 402 kts | 274° |
| 2026-05-06 22:50 | 30.20636 | 100.95761 | 36462 ft | 403 kts | 273° |
| 2026-05-06 22:50 | 30.21153 | 100.89335 | 36458 ft | 404 kts | 273° |
| 2026-05-06 22:51 | 30.21669 | 100.82877 | 36411 ft | 401 kts | 273° |
| 2026-05-06 22:51 | 30.22181 | 100.76442 | 36434 ft | 401 kts | 273° |
| 2026-05-06 22:52 | 30.22688 | 100.70038 | 36411 ft | 400 kts | 273° |
| 2026-05-06 22:52 | 30.23193 | 100.63661 | 36435 ft | 400 kts | 273° |
| 2026-05-06 22:53 | 30.23704 | 100.57237 | 36419 ft | 401 kts | 273° |
| 2026-05-06 22:53 | 30.24208 | 100.50816 | 36426 ft | 401 kts | 273° |
| 2026-05-06 22:54 | 30.24711 | 100.44375 | 36412 ft | 402 kts | 273° |
| 2026-05-06 22:54 | 30.25235 | 100.37957 | 36423 ft | 400 kts | 273° |
| 2026-05-06 22:55 | 30.25720 | 100.31601 | 36421 ft | 397 kts | 273° |
| 2026-05-06 22:55 | 30.26197 | 100.25218 | 36421 ft | 399 kts | 273° |
| 2026-05-06 22:56 | 30.26683 | 100.18805 | 36432 ft | 400 kts | 272° |
| 2026-05-06 22:56 | 30.27171 | 100.12374 | 36421 ft | 401 kts | 273° |
| 2026-05-06 22:57 | 30.27657 | 100.05930 | 36418 ft | 403 kts | 272° |
| 2026-05-06 22:57 | 30.28138 | 99.99513 | 36429 ft | 404 kts | 273° |
| 2026-05-06 22:58 | 30.28701 | 99.93012 | 36461 ft | 401 kts | 274° |
| 2026-05-06 22:58 | 30.29283 | 99.86743 | 36386 ft | 400 kts | 274° |
| 2026-05-06 22:59 | 30.29863 | 99.80363 | 36427 ft | 395 kts | 274° |
| 2026-05-06 22:59 | 30.30430 | 99.73983 | 36423 ft | 400 kts | 273° |
| 2026-05-06 23:00 | 30.30994 | 99.67592 | 36426 ft | 404 kts | 273° |
| 2026-05-06 23:00 | 30.31564 | 99.61097 | 36431 ft | 405 kts | 273° |
| 2026-05-06 23:01 | 30.32132 | 99.54589 | 36420 ft | 407 kts | 273° |
| 2026-05-06 23:01 | 30.32700 | 99.48047 | 36408 ft | 408 kts | 273° |
| 2026-05-06 23:02 | 30.33261 | 99.41557 | 36413 ft | 408 kts | 273° |
| 2026-05-06 23:02 | 30.33822 | 99.35008 | 36378 ft | 408 kts | 272° |
| 2026-05-06 23:03 | 30.34380 | 99.28468 | 36384 ft | 406 kts | 272° |
| 2026-05-06 23:03 | 30.34932 | 99.21941 | 36368 ft | 407 kts | 272° |
| 2026-05-06 23:04 | 30.35486 | 99.15418 | 36367 ft | 404 kts | 272° |
| 2026-05-06 23:04 | 30.36026 | 99.08954 | 36386 ft | 403 kts | 272° |
| 2026-05-06 23:05 | 30.36564 | 99.02476 | 36377 ft | 404 kts | 272° |
| 2026-05-06 23:05 | 30.37094 | 98.96027 | 36364 ft | 404 kts | 271° |
| 2026-05-06 23:06 | 30.37620 | 98.89574 | 36334 ft | 399 kts | 273° |
| 2026-05-06 23:06 | 30.38154 | 98.83207 | 36362 ft | 397 kts | 272° |
| 2026-05-06 23:07 | 30.38661 | 98.76785 | 36383 ft | 404 kts | 271° |
| 2026-05-06 23:07 | 30.39147 | 98.70250 | 36353 ft | 410 kts | 274° |
| 2026-05-06 23:08 | 30.39840 | 98.63729 | 36404 ft | 409 kts | 272° |
| 2026-05-06 23:08 | 30.40293 | 98.57166 | 36440 ft | 406 kts | 271° |
| 2026-05-06 23:09 | 30.40268 | 98.50623 | 36091 ft | 410 kts | 263° |
| 2026-05-06 23:09 | 30.40193 | 98.48432 | 35951 ft | 409 kts | 266° |
| 2026-05-06 23:09 | 30.40348 | 98.45142 | 34822 ft | 423 kts | 270° |
| 2026-05-06 23:09 | 30.40424 | 98.41709 | 34215 ft | 412 kts | 263° |
| 2026-05-06 23:10 | 30.40525 | 98.38510 | 34893 ft | 394 kts | 275° |
| 2026-05-06 23:10 | 30.41347 | 98.35458 | 34733 ft | 408 kts | 287° |
| 2026-05-06 23:10 | 30.42501 | 98.32355 | 33743 ft | 425 kts | 284° |
| 2026-05-06 23:10 | 30.42906 | 98.29035 | 33350 ft | 408 kts | 264° |
| 2026-05-06 23:11 | 30.42805 | 98.25793 | 33691 ft | 400 kts | 268° |
| 2026-05-06 23:11 | 30.42922 | 98.22573 | 34022 ft | 399 kts | 271° |
| 2026-05-06 23:11 | 30.43151 | 98.19371 | 34249 ft | 399 kts | 272° |
| 2026-05-06 23:11 | 30.43431 | 98.16173 | 34456 ft | 400 kts | 272° |
| 2026-05-06 23:12 | 30.43727 | 98.12973 | 34644 ft | 400 kts | 273° |
| 2026-05-06 23:12 | 30.44024 | 98.09786 | 34754 ft | 402 kts | 273° |
| 2026-05-06 23:12 | 30.44317 | 98.06597 | 34913 ft | 403 kts | 272° |
| 2026-05-06 23:12 | 30.44611 | 98.03360 | 35118 ft | 403 kts | 272° |
| 2026-05-06 23:13 | 30.44903 | 98.00111 | 35314 ft | 403 kts | 273° |
| 2026-05-06 23:13 | 30.45190 | 97.96872 | 35448 ft | 404 kts | 272° |
| 2026-05-06 23:13 | 30.45475 | 97.93621 | 35602 ft | 405 kts | 272° |
| 2026-05-06 23:13 | 30.45759 | 97.90373 | 35745 ft | 404 kts | 272° |
| 2026-05-06 23:14 | 30.46043 | 97.87136 | 35830 ft | 404 kts | 272° |
| 2026-05-06 23:14 | 30.46584 | 97.80646 | 35898 ft | 408 kts | 272° |
| 2026-05-06 23:14 | 30.46870 | 97.77372 | 36053 ft | 408 kts | 272° |
| 2026-05-06 23:15 | 30.47160 | 97.74109 | 36258 ft | 407 kts | 272° |
| 2026-05-06 23:15 | 30.47733 | 97.67553 | 36462 ft | 409 kts | 272° |
| 2026-05-06 23:15 | 30.48017 | 97.64277 | 36760 ft | 406 kts | 272° |
| 2026-05-06 23:16 | 30.48297 | 97.61028 | 36945 ft | 405 kts | 273° |
| 2026-05-06 23:16 | 30.48968 | 97.54589 | 36947 ft | 402 kts | 271° |
| 2026-05-06 23:17 | 30.49433 | 97.48128 | 37001 ft | 402 kts | 271° |
| 2026-05-06 23:17 | 30.49933 | 97.41667 | 36973 ft | 406 kts | 272° |
| 2026-05-06 23:18 | 30.50474 | 97.35131 | 36982 ft | 408 kts | 272° |
| 2026-05-06 23:18 | 30.51018 | 97.28564 | 36999 ft | 409 kts | 271° |
| 2026-05-06 23:19 | 30.51563 | 97.21980 | 37000 ft | 410 kts | 272° |
| 2026-05-06 23:19 | 30.51986 | 97.15439 | 36993 ft | 407 kts | 266° |
| 2026-05-06 23:20 | 30.51251 | 97.08952 | 36977 ft | 406 kts | 256° |
| 2026-05-06 23:20 | 30.49988 | 97.02572 | 37010 ft | 405 kts | 256° |
| 2026-05-06 23:21 | 30.48741 | 96.96218 | 37004 ft | 403 kts | 256° |
| 2026-05-06 23:21 | 30.47510 | 96.89890 | 37021 ft | 402 kts | 257° |
| 2026-05-06 23:22 | 30.46274 | 96.83588 | 37004 ft | 401 kts | 256° |
| 2026-05-06 23:22 | 30.45051 | 96.77312 | 37036 ft | 402 kts | 256° |
| 2026-05-06 23:23 | 30.43817 | 96.70984 | 37031 ft | 403 kts | 256° |
| 2026-05-06 23:23 | 30.42585 | 96.64665 | 37021 ft | 399 kts | 256° |
| 2026-05-06 23:24 | 30.41354 | 96.58391 | 37024 ft | 400 kts | 256° |
| 2026-05-06 23:24 | 30.40115 | 96.52081 | 37031 ft | 402 kts | 256° |
| 2026-05-06 23:25 | 30.38862 | 96.45741 | 37021 ft | 403 kts | 256° |
| 2026-05-06 23:25 | 30.37618 | 96.39452 | 37028 ft | 405 kts | 256° |
| 2026-05-06 23:26 | 30.36341 | 96.33056 | 37057 ft | 408 kts | 256° |
| 2026-05-06 23:26 | 30.35064 | 96.26616 | 37050 ft | 407 kts | 256° |
| 2026-05-06 23:27 | 30.33800 | 96.20256 | 37079 ft | 403 kts | 256° |
| 2026-05-06 23:27 | 30.32541 | 96.13962 | 37110 ft | 399 kts | 256° |
| 2026-05-06 23:28 | 30.31293 | 96.07732 | 37103 ft | 399 kts | 256° |
| 2026-05-06 23:28 | 30.30032 | 96.01461 | 37085 ft | 399 kts | 256° |
| 2026-05-06 23:29 | 30.28808 | 95.95202 | 37095 ft | 398 kts | 256° |
| 2026-05-06 23:29 | 30.27613 | 95.88934 | 37111 ft | 400 kts | 256° |
| 2026-05-06 23:30 | 30.26405 | 95.82622 | 37102 ft | 402 kts | 256° |
| 2026-05-06 23:30 | 30.25195 | 95.76344 | 37134 ft | 402 kts | 256° |
| 2026-05-06 23:31 | 30.23960 | 95.70027 | 36915 ft | 398 kts | 256° |
| 2026-05-06 23:31 | 30.23375 | 95.66938 | 37135 ft | 390 kts | 256° |
| 2026-05-06 23:31 | 30.22798 | 95.63853 | 37092 ft | 394 kts | 256° |
| 2026-05-06 23:32 | 30.21501 | 95.57750 | 37106 ft | 392 kts | 256° |
| 2026-05-06 23:32 | 30.20332 | 95.51556 | 37125 ft | 396 kts | 256° |
| 2026-05-06 23:33 | 30.19182 | 95.45337 | 37162 ft | 398 kts | 256° |
| 2026-05-06 23:33 | 30.17955 | 95.39042 | 37101 ft | 403 kts | 256° |
| 2026-05-06 23:34 | 30.16692 | 95.32722 | 37131 ft | 404 kts | 256° |
| 2026-05-06 23:34 | 30.15432 | 95.26372 | 37128 ft | 406 kts | 256° |
| 2026-05-06 23:35 | 30.14179 | 95.20017 | 37017 ft | 401 kts | 256° |
| 2026-05-06 23:35 | 30.12921 | 95.13760 | 37101 ft | 399 kts | 256° |
| 2026-05-06 23:36 | 30.11686 | 95.07504 | 37096 ft | 403 kts | 256° |
| 2026-05-06 23:36 | 30.10427 | 95.01140 | 37099 ft | 404 kts | 256° |
| 2026-05-06 23:37 | 30.09179 | 94.94842 | 37119 ft | 406 kts | 256° |
| 2026-05-06 23:37 | 30.07955 | 94.88451 | 37114 ft | 410 kts | 256° |
| 2026-05-06 23:38 | 30.06736 | 94.82018 | 37092 ft | 408 kts | 256° |
| 2026-05-06 23:38 | 30.05527 | 94.75687 | 37118 ft | 399 kts | 256° |
| 2026-05-06 23:39 | 30.04331 | 94.69428 | 37099 ft | 399 kts | 256° |
| 2026-05-06 23:39 | 30.03725 | 94.66303 | 36985 ft | 396 kts | 256° |
| 2026-05-06 23:39 | 30.03135 | 94.63252 | 37058 ft | 396 kts | 256° |
| 2026-05-06 23:40 | 30.01922 | 94.56971 | 37072 ft | 406 kts | 256° |
| 2026-05-06 23:40 | 30.00694 | 94.50627 | 37106 ft | 403 kts | 256° |
| 2026-05-06 23:41 | 29.99470 | 94.44315 | 37099 ft | 402 kts | 256° |
| 2026-05-06 23:41 | 29.98245 | 94.38014 | 37075 ft | 405 kts | 256° |
| 2026-05-06 23:42 | 29.97015 | 94.31735 | 37108 ft | 403 kts | 256° |
| 2026-05-06 23:42 | 29.95781 | 94.25435 | 37098 ft | 401 kts | 255° |
| 2026-05-06 23:43 | 29.94548 | 94.19155 | 37161 ft | 401 kts | 256° |
| 2026-05-06 23:43 | 29.93306 | 94.12846 | 37122 ft | 403 kts | 256° |
| 2026-05-06 23:44 | 29.92062 | 94.06546 | 37087 ft | 408 kts | 255° |
| 2026-05-06 23:44 | 29.90801 | 94.00163 | 37089 ft | 409 kts | 255° |
| 2026-05-06 23:45 | 29.89310 | 93.93844 | 37091 ft | 407 kts | 248° |
| 2026-05-06 23:45 | 29.86741 | 93.88046 | 37116 ft | 406 kts | 242° |
| 2026-05-06 23:46 | 29.83974 | 93.82379 | 37103 ft | 405 kts | 241° |
| 2026-05-06 23:46 | 29.81257 | 93.76760 | 37093 ft | 401 kts | 241° |
| 2026-05-06 23:47 | 29.78550 | 93.71182 | 37092 ft | 397 kts | 242° |
| 2026-05-06 23:47 | 29.75871 | 93.65649 | 37096 ft | 395 kts | 242° |
| 2026-05-06 23:48 | 29.73160 | 93.60072 | 37070 ft | 404 kts | 242° |
| 2026-05-06 23:48 | 29.70431 | 93.54418 | 37090 ft | 404 kts | 242° |
| 2026-05-06 23:49 | 29.67711 | 93.48828 | 37085 ft | 401 kts | 241° |
| 2026-05-06 23:49 | 29.65008 | 93.43268 | 37063 ft | 395 kts | 242° |
| 2026-05-06 23:50 | 29.62332 | 93.37768 | 37096 ft | 396 kts | 242° |
| 2026-05-06 23:50 | 29.58263 | 93.29419 | 37081 ft | 401 kts | 241° |
| 2026-05-06 23:51 | 29.55518 | 93.23799 | 37095 ft | 403 kts | 241° |
| 2026-05-06 23:51 | 29.52760 | 93.18166 | 37100 ft | 405 kts | 241° |
| 2026-05-06 23:52 | 29.50012 | 93.12547 | 37045 ft | 404 kts | 241° |
| 2026-05-06 23:52 | 29.47248 | 93.06933 | 37085 ft | 404 kts | 242° |
| 2026-05-06 23:53 | 29.44488 | 93.01302 | 37077 ft | 405 kts | 241° |
| 2026-05-06 23:53 | 29.41715 | 92.95681 | 37095 ft | 404 kts | 242° |
| 2026-05-06 23:54 | 29.38967 | 92.90141 | 37094 ft | 398 kts | 241° |
| 2026-05-06 23:54 | 29.36259 | 92.84670 | 37084 ft | 395 kts | 241° |
| 2026-05-06 23:55 | 29.33987 | 92.80087 | 37071 ft | 399 kts | 241° |
| 2026-05-06 23:55 | 29.30779 | 92.73626 | 37083 ft | 403 kts | 241° |
| 2026-05-06 23:56 | 29.28461 | 92.68957 | 37072 ft | 401 kts | 241° |
| 2026-05-06 23:56 | 29.25726 | 92.63433 | 37089 ft | 400 kts | 244° |
| 2026-05-06 23:57 | 29.24059 | 92.57361 | 37062 ft | 401 kts | 257° |
| 2026-05-06 23:57 | 29.23723 | 92.50927 | 36415 ft | 413 kts | 270° |
| 2026-05-06 23:58 | 29.23943 | 92.47662 | 35887 ft | 410 kts | 270° |
| 2026-05-06 23:58 | 29.24163 | 92.44411 | 35206 ft | 410 kts | 270° |
| 2026-05-06 23:58 | 29.24378 | 92.41162 | 34548 ft | 410 kts | 270° |
| 2026-05-06 23:58 | 29.24585 | 92.37962 | 33835 ft | 413 kts | 269° |
| 2026-05-06 23:59 | 29.24794 | 92.34649 | 33093 ft | 414 kts | 269° |
| 2026-05-06 23:59 | 29.25000 | 92.31344 | 32300 ft | 416 kts | 269° |
| 2026-05-06 23:59 | 29.25206 | 92.28037 | 31610 ft | 418 kts | 270° |
| 2026-05-06 23:59 | 29.25411 | 92.24684 | 30815 ft | 423 kts | 270° |
| 2026-05-07 00:00 | 29.25617 | 92.21305 | 29979 ft | 427 kts | 270° |
| 2026-05-07 00:00 | 29.25823 | 92.17888 | 29048 ft | 430 kts | 270° |
| 2026-05-07 00:00 | 29.26032 | 92.14463 | 28111 ft | 432 kts | 270° |
| 2026-05-07 00:00 | 29.26240 | 92.11023 | 27205 ft | 434 kts | 270° |
| 2026-05-07 00:01 | 29.26446 | 92.07615 | 26272 ft | 436 kts | 270° |
| 2026-05-07 00:01 | 29.26656 | 92.04146 | 25568 ft | 434 kts | 270° |
| 2026-05-07 00:01 | 29.26862 | 92.00700 | 24867 ft | 433 kts | 271° |
| 2026-05-07 00:01 | 29.27066 | 91.97266 | 24170 ft | 432 kts | 271° |
| 2026-05-07 00:02 | 29.27268 | 91.93836 | 23438 ft | 431 kts | 271° |
| 2026-05-07 00:02 | 29.27469 | 91.90411 | 22668 ft | 429 kts | 271° |
| 2026-05-07 00:02 | 29.27668 | 91.87023 | 22166 ft | 422 kts | 271° |
| 2026-05-07 00:02 | 29.27862 | 91.83728 | 21942 ft | 408 kts | 271° |
| 2026-05-07 00:03 | 29.28050 | 91.80536 | 21750 ft | 395 kts | 271° |
| 2026-05-07 00:03 | 29.28230 | 91.77439 | 21582 ft | 383 kts | 271° |
| 2026-05-07 00:03 | 29.28401 | 91.74473 | 21424 ft | 372 kts | 271° |
| 2026-05-07 00:03 | 29.28568 | 91.71551 | 21269 ft | 362 kts | 271° |
| 2026-05-07 00:04 | 29.28730 | 91.68703 | 21100 ft | 353 kts | 271° |
| 2026-05-07 00:04 | 29.29443 | 91.56141 | 20199 ft | 322 kts | 271° |
| 2026-05-07 00:04 | 29.29682 | 91.51830 | 19995 ft | 306 kts | 271° |
| 2026-05-07 00:04 | 29.29815 | 91.49439 | 19961 ft | 295 kts | 271° |
| 2026-05-07 00:05 | 29.30574 | 91.34755 | 18493 ft | 273 kts | 267° |
| 2026-05-07 00:05 | 29.30503 | 91.32585 | 18190 ft | 272 kts | 266° |
| 2026-05-07 00:05 | 29.30465 | 91.30465 | 17969 ft | 265 kts | 267° |
| 2026-05-07 00:05 | 29.30436 | 91.28364 | 17597 ft | 262 kts | 267° |
| 2026-05-07 00:06 | 29.30398 | 91.26288 | 17258 ft | 258 kts | 267° |
| 2026-05-07 00:06 | 29.30360 | 91.24246 | 16923 ft | 255 kts | 267° |
| 2026-05-07 00:06 | 29.30324 | 91.22234 | 16600 ft | 251 kts | 267° |
| 2026-05-07 00:06 | 29.30288 | 91.20245 | 16281 ft | 248 kts | 267° |
| 2026-05-07 00:07 | 29.30252 | 91.18235 | 15953 ft | 245 kts | 267° |
| 2026-05-07 00:07 | 29.30187 | 91.14378 | 15313 ft | 245 kts | 266° |
| 2026-05-07 00:07 | 29.30152 | 91.12457 | 14999 ft | 241 kts | 267° |
| 2026-05-07 00:07 | 29.30120 | 91.10571 | 14672 ft | 233 kts | 267° |
| 2026-05-07 00:08 | 29.30089 | 91.08741 | 14346 ft | 220 kts | 267° |
| 2026-05-07 00:08 | 29.30062 | 91.07072 | 14084 ft | 207 kts | 267° |
| 2026-05-07 00:08 | 29.30033 | 91.05439 | 13845 ft | 203 kts | 267° |
| 2026-05-07 00:08 | 29.30007 | 91.03821 | 13606 ft | 200 kts | 268° |
| 2026-05-07 00:09 | 29.29981 | 91.02244 | 13305 ft | 196 kts | 268° |
| 2026-05-07 00:09 | 29.29955 | 91.00690 | 13022 ft | 194 kts | 268° |
| 2026-05-07 00:09 | 29.29930 | 90.99130 | 12743 ft | 197 kts | 268° |
| 2026-05-07 00:09 | 29.29906 | 90.97586 | 12483 ft | 193 kts | 268° |
| 2026-05-07 00:10 | 29.29904 | 90.97392 | 12458 ft | 192 kts | 268° |
| 2026-05-07 00:10 | 29.29885 | 90.96230 | 12287 ft | 193 kts | 267° |
| 2026-05-07 00:10 | 29.29858 | 90.94686 | 11959 ft | 194 kts | 268° |
| 2026-05-07 00:10 | 29.29841 | 90.93152 | 11651 ft | 191 kts | 268° |
| 2026-05-07 00:11 | 29.29813 | 90.91703 | 11598 ft | 172 kts | 268° |
| 2026-05-07 00:11 | 29.29798 | 90.90500 | 11602 ft | 130 kts | 268° |
| 2026-05-07 00:11 | 29.29785 | 90.89750 | 11614 ft | 27 kts | 269° |